Time;durP1;ratioP1;P1;durP2;ratioP2;P2;SDS_P1;SDS_P2;PMS_P1;PMS_P2;Temp;Humidity;BMP_temperature;BMP_pressure;BME280_temperature;BME280_humidity;BME280_pressure;Samples;Min_cycle;Max_cycle;Signal;HPM_P1;HPM_P2
2022/06/17 09:43:08;;;;;;;3.40;1.82;;;;;;;26.72;28.33;99224.63;1747249;81;20962;-66
2022/06/17 09:45:52;;;;;;;4.17;1.27;;;;;;;26.83;28.65;99229.24;1748357;81;21000;-69
2022/06/17 09:48:29;;;;;;;5.75;1.82;;;;;;;27.04;28.51;99222.84;1747413;81;21008;-72
2022/06/17 09:51:17;;;;;;;4.12;1.80;;;;;;;27.18;27.86;99228.77;1744266;81;21009;-72
2022/06/17 09:53:58;;;;;;;3.42;1.50;;;;;;;27.28;28.55;99229.39;1740848;81;21245;-71
2022/06/17 09:56:39;;;;;;;2.10;1.62;;;;;;;27.45;27.76;99225.59;1730405;82;21580;-71
2022/06/17 09:59:21;;;;;;;4.08;1.92;;;;;;;27.54;27.16;99222.88;1723322;81;21110;-70
2022/06/17 10:01:50;;;;;;;6.33;1.67;;;;;;;27.54;27.55;99218.38;1718965;82;20983;-70
2022/06/17 10:04:17;;;;;;;6.97;1.92;;;;;;;27.68;27.62;99216.78;1734244;81;21057;-70
2022/06/17 10:06:57;;;;;;;3.40;1.77;;;;;;;27.89;26.92;99224.14;1741028;81;21204;-71
2022/06/17 10:09:40;;;;;;;4.20;1.90;;;;;;;27.92;26.61;99223.27;1727678;81;20943;-70
2022/06/17 10:12:24;;;;;;;19.15;10.48;;;;;;;27.97;27.15;99214.72;1721357;82;21003;-71
2022/06/17 10:15:29;;;;;;;4.72;2.37;;;;;;;28.20;27.29;99212.00;1725073;82;21047;-70
2022/06/17 10:18:31;;;;;;;1.90;1.40;;;;;;;28.40;26.23;99208.61;1734125;81;21328;-69
2022/06/17 10:21:28;;;;;;;1.87;1.55;;;;;;;28.43;26.19;99206.91;1757703;80;21142;-70
2022/06/17 10:24:19;;;;;;;1.42;1.32;;;;;;;28.34;25.99;99198.66;1747573;80;21045;-71
2022/06/17 10:27:01;;;;;;;1.85;1.27;;;;;;;28.35;26.40;99200.33;1735571;80;21013;-70
2022/06/17 10:30:11;;;;;;;4.33;1.90;;;;;;;28.41;26.28;99200.08;1756452;80;21042;-70
2022/06/17 10:32:45;;;;;;;8.35;2.10;;;;;;;28.42;26.18;99199.89;1745313;81;21517;-70
2022/06/17 10:35:30;;;;;;;5.95;2.17;;;;;;;28.41;26.22;99194.22;1750447;80;21208;-70
2022/06/17 10:37:58;;;;;;;2.80;1.90;;;;;;;28.24;26.36;99195.41;1773271;80;21042;-69
2022/06/17 10:40:27;;;;;;;3.40;1.67;;;;;;;28.06;26.51;99186.37;1771372;80;21052;-71
2022/06/17 10:42:57;;;;;;;5.28;2.02;;;;;;;27.95;26.41;99194.85;1774177;80;20903;-75
2022/06/17 10:45:24;;;;;;;8.58;2.42;;;;;;;27.84;26.64;99193.94;1747681;80;21055;-74
2022/06/17 10:47:59;;;;;;;3.65;2.45;;;;;;;27.83;26.93;99195.45;1721464;82;21176;-73
2022/06/17 10:50:29;;;;;;;6.03;2.12;;;;;;;27.82;26.94;99187.10;1747704;81;21501;-75
2022/06/17 10:53:12;;;;;;;3.58;1.72;;;;;;;27.85;26.83;99181.41;1734711;80;21958;-75
2022/06/17 10:55:52;;;;;;;1.85;1.50;;;;;;;27.84;26.82;99177.90;1743518;80;21092;-76
2022/06/17 10:58:24;;;;;;;3.87;1.90;;;;;;;27.73;26.87;99177.84;1747512;80;20990;-76
2022/06/17 11:01:07;;;;;;;5.12;1.32;;;;;;;27.77;27.16;99176.98;1745917;80;21763;-76
2022/06/17 11:03:40;;;;;;;3.27;1.63;;;;;;;27.92;27.16;99170.32;1732443;81;20970;-71
2022/06/17 11:06:22;;;;;;;4.83;1.70;;;;;;;28.01;26.97;99162.02;1728728;81;21610;-71
2022/06/17 11:09:13;;;;;;;8.03;2.10;;;;;;;28.04;26.90;99169.69;1737667;81;20990;-72
2022/06/17 11:12:03;;;;;;;4.30;1.95;;;;;;;28.05;26.81;99161.98;1712509;82;20941;-72
2022/06/17 11:14:40;;;;;;;4.35;1.85;;;;;;;28.12;26.88;99162.09;1723433;81;21276;-71
2022/06/17 11:17:41;;;;;;;10.70;2.60;;;;;;;28.19;26.84;99154.16;1734614;82;21536;-72
2022/06/17 11:20:29;;;;;;;4.90;1.60;;;;;;;28.37;27.02;99147.98;1722319;82;21081;-72
2022/06/17 11:23:06;;;;;;;6.60;1.55;;;;;;;28.59;26.44;99148.36;1735643;82;20985;-73
2022/06/17 11:25:38;;;;;;;2.47;1.70;;;;;;;28.66;26.27;99145.27;1733948;81;21033;-71
2022/06/17 11:28:24;;;;;;;7.90;2.20;;;;;;;28.66;26.62;99145.77;1734244;81;21799;-72
2022/06/17 11:30:57;;;;;;;9.23;2.40;;;;;;;28.68;26.46;99145.91;1746099;80;21013;-71
2022/06/17 11:33:27;;;;;;;;;;;;;;;28.65;26.58;99145.45;1742648;82;21019;-72
2022/06/17 11:36:09;;;;;;;13.65;2.65;;;;;;;28.67;26.44;99138.90;1735034;80;20446;-71
2022/06/17 11:38:37;;;;;;;5.22;1.70;;;;;;;28.64;26.38;99143.79;1678356;83;20929;-73
2022/06/17 11:41:03;;;;;;;3.33;1.50;;;;;;;28.55;26.35;99139.06;1708432;81;21141;-73
2022/06/17 11:43:45;;;;;;;3.40;1.60;;;;;;;28.61;26.74;99135.62;1765288;79;21007;-73
2022/06/17 11:46:21;;;;;;;2.20;1.50;;;;;;;28.73;26.20;99131.47;1772792;79;21014;-72
2022/06/17 11:48:57;;;;;;;6.15;2.05;;;;;;;28.93;25.95;99118.84;1759425;80;20955;-72
2022/06/17 11:51:33;;;;;;;5.28;1.55;;;;;;;29.11;26.03;99124.09;1711617;82;21066;-72
2022/06/17 11:54:10;;;;;;;4.80;1.90;;;;;;;29.12;25.62;99116.37;1707383;82;21329;-69
2022/06/17 11:56:42;;;;;;;3.02;1.57;;;;;;;29.11;25.79;99120.08;1683393;84;20934;-69
2022/06/17 11:59:29;;;;;;;4.35;1.55;;;;;;;29.00;25.60;99114.38;1669717;85;20898;-69
2022/06/17 12:02:03;;;;;;;6.62;1.75;;;;;;;28.93;25.98;99111.65;1645943;86;21001;-69
2022/06/17 12:05:08;;;;;;;4.03;1.55;;;;;;;28.93;26.33;99106.80;1719671;83;20998;-69
2022/06/17 12:07:50;;;;;;;6.50;2.15;;;;;;;28.97;26.27;99110.77;1736140;82;21267;-69
2022/06/17 12:10:47;;;;;;;2.50;2.05;;;;;;;28.96;26.27;99111.78;1738318;81;20930;-69
2022/06/17 12:13:47;;;;;;;3.20;1.80;;;;;;;28.90;26.29;99109.34;1756016;81;21057;-71
2022/06/17 12:16:41;;;;;;;2.05;1.42;;;;;;;28.80;26.45;99107.47;1729892;81;21239;-70
2022/06/17 12:19:21;;;;;;;101.42;16.30;;;;;;;28.70;26.60;99105.08;1707056;82;20927;-76
2022/06/17 12:21:59;;;;;;;33.75;7.47;;;;;;;28.59;26.52;99102.88;1724757;80;21132;-78
2022/06/17 12:24:51;;;;;;;12.40;3.50;;;;;;;28.45;26.51;99100.55;1689714;83;21062;-79
2022/06/17 12:27:29;;;;;;;4.92;2.10;;;;;;;28.43;26.72;99101.24;1720976;82;21123;-81
2022/06/17 12:30:04;;;;;;;2.25;1.75;;;;;;;28.48;27.31;99095.34;1718494;82;21023;-76
2022/06/17 12:32:49;;;;;;;3.22;1.70;;;;;;;28.54;27.17;99090.59;1728638;80;21238;-76
2022/06/17 12:35:42;;;;;;;5.05;1.70;;;;;;;28.57;27.21;99093.40;1718980;80;21118;-78
2022/06/17 12:38:32;;;;;;;4.10;1.60;;;;;;;28.56;26.91;99083.20;1739586;80;21114;-78
2022/06/17 12:41:04;;;;;;;4.40;1.77;;;;;;;28.59;26.98;99081.97;1736224;80;21007;-78
2022/06/17 12:43:44;;;;;;;6.40;2.20;;;;;;;28.63;26.81;99080.58;1772715;80;21104;-78
2022/06/17 12:46:29;;;;;;;4.17;1.82;;;;;;;28.61;26.93;99078.09;1737143;80;21108;-79
2022/06/17 12:55:19;;;;;;;4.35;2.27;;;;;;;28.63;26.87;99068.55;1728109;82;20978;-76
2022/06/17 12:58:06;;;;;;;5.97;1.90;;;;;;;28.68;27.13;99069.64;1647009;85;21062;-79
2022/06/17 13:00:59;;;;;;;5.40;1.90;;;;;;;28.63;26.89;99068.55;1679695;84;20981;-79
2022/06/17 13:03:48;;;;;;;7.62;2.40;;;;;;;28.46;26.75;99071.45;1655495;86;21252;-77
2022/06/17 13:06:32;;;;;;;8.10;2.40;;;;;;;28.25;27.12;99070.05;1649648;86;21119;-79
2022/06/17 13:09:22;;;;;;;4.17;2.35;;;;;;;27.98;27.10;99066.66;1659847;86;21422;-78
2022/06/17 13:12:08;;;;;;;7.80;2.40;;;;;;;27.70;27.49;99069.98;1696616;82;21041;-77
2022/06/17 13:15:00;;;;;;;3.08;2.20;;;;;;;27.43;27.77;99067.36;1700310;82;21049;-77
2022/06/17 13:18:02;;;;;;;5.08;2.85;;;;;;;27.19;28.18;99075.58;1638421;86;21196;-79
2022/06/17 13:20:56;;;;;;;7.03;2.12;;;;;;;26.96;28.71;99076.11;1699386;83;21045;-79
2022/06/17 13:23:53;;;;;;;10.68;2.42;;;;;;;26.68;29.54;99093.08;1638425;86;21087;-79
2022/06/17 13:26:24;;;;;;;6.75;2.12;;;;;;;26.23;33.69;99076.42;1699842;82;21596;-78
2022/06/17 13:29:12;;;;;;;11.25;2.35;;;;;;;25.44;35.85;99086.57;1700608;83;21135;-77
2022/06/17 13:31:56;;;;;;;4.42;2.02;;;;;;;24.87;38.65;99095.83;1707404;82;21793;-78
2022/06/17 13:34:34;;;;;;;4.55;1.95;;;;;;;24.34;40.64;99109.80;1710100;83;21081;-78
2022/06/17 13:37:18;;;;;;;5.78;1.70;;;;;;;23.88;42.74;99123.47;1706295;83;21035;-78
2022/06/17 13:40:03;;;;;;;7.78;2.42;;;;;;;23.41;44.15;99134.36;1704906;83;21584;-79
2022/06/17 13:42:31;;;;;;;4.72;2.22;;;;;;;22.88;47.96;99159.06;1674827;82;21045;-79
2022/06/17 13:45:22;;;;;;;4.22;2.17;;;;;;;22.24;51.32;99167.01;1700799;82;21848;-78
2022/06/17 13:47:58;;;;;;;9.08;2.47;;;;;;;21.71;53.87;99167.53;1637431;86;21130;-77
2022/06/17 13:50:37;;;;;;;7.87;3.05;;;;;;;21.33;56.35;99168.88;1704962;83;21505;-76
2022/06/17 13:53:21;;;;;;;5.67;2.90;;;;;;;21.09;58.78;99169.23;1646214;86;21122;-77
2022/06/17 13:56:05;;;;;;;4.83;1.90;;;;;;;20.94;60.19;99164.35;1643832;85;21128;-78
2022/06/17 13:58:41;;;;;;;5.95;2.08;;;;;;;20.80;60.53;99156.79;1712050;81;21245;-77
2022/06/17 14:01:20;;;;;;;3.95;1.67;;;;;;;20.65;61.04;99140.97;1736392;81;21564;-77
2022/06/17 14:04:01;;;;;;;8.63;2.37;;;;;;;20.55;62.21;99129.07;1732511;82;21176;-75
2022/06/17 14:06:51;;;;;;;4.62;2.80;;;;;;;20.39;63.62;99135.32;1732040;80;21018;-75
2022/06/17 14:09:31;;;;;;;3.87;2.05;;;;;;;20.25;64.29;99139.63;1724182;82;21617;-74
2022/06/17 14:12:01;;;;;;;2.90;1.82;;;;;;;20.17;65.50;99138.14;1735086;82;21631;-73
2022/06/17 14:14:32;;;;;;;3.67;2.33;;;;;;;20.06;65.12;99140.85;1729916;81;20969;-74
2022/06/17 14:17:21;;;;;;;2.83;2.15;;;;;;;19.98;66.37;99150.77;1740574;81;21066;-74
2022/06/17 14:19:52;;;;;;;4.37;2.00;;;;;;;19.90;66.36;99148.77;1735711;81;20942;-74
2022/06/17 14:22:35;;;;;;;3.62;1.90;;;;;;;19.87;68.69;99150.83;1733822;82;21401;-74
2022/06/17 14:25:14;;;;;;;4.42;1.75;;;;;;;19.92;69.86;99146.00;1739624;81;21241;-75
2022/06/17 14:27:54;;;;;;;3.67;1.80;;;;;;;20.00;70.65;99159.84;1736778;81;21021;-75
2022/06/17 14:30:35;;;;;;;6.35;2.60;;;;;;;20.03;70.30;99168.34;1665182;85;21028;-75
2022/06/17 14:33:02;;;;;;;4.45;2.55;;;;;;;20.02;71.70;99169.80;1725638;82;21013;-76
2022/06/17 14:35:34;;;;;;;3.42;2.50;;;;;;;19.93;73.12;99181.98;1672088;85;21261;-75
2022/06/17 14:38:28;;;;;;;4.20;3.55;;;;;;;19.84;74.29;99188.86;1687192;84;21180;-75
2022/06/17 14:44:02;;;;;;;3.15;1.70;;;;;;;19.66;72.36;99191.73;1729327;82;21088;-76
2022/06/17 14:46:30;;;;;;;1.92;1.42;;;;;;;19.54;71.70;99208.58;1726260;82;21046;-75
2022/06/17 14:49:42;;;;;;;5.35;2.12;;;;;;;19.40;71.13;99214.94;1644283;85;21020;-76
2022/06/17 14:52:31;;;;;;;5.30;1.90;;;;;;;19.23;71.87;99220.75;1742804;81;21550;-78
2022/06/17 14:55:15;;;;;;;2.65;1.60;;;;;;;19.05;73.70;99218.28;1744970;82;21018;-77
2022/06/17 14:57:49;;;;;;;5.97;2.33;;;;;;;18.98;74.63;99220.59;1737861;81;20966;-77
2022/06/17 15:00:19;;;;;;;5.20;3.12;;;;;;;18.93;76.54;99218.31;1720006;81;21020;-77
2022/06/17 15:02:48;;;;;;;5.60;3.00;;;;;;;18.87;77.31;99213.52;1719468;81;20985;-77
2022/06/17 15:05:36;;;;;;;11.40;4.12;;;;;;;18.84;78.51;99216.39;1721333;81;21121;-77
2022/06/17 15:08:18;;;;;;;7.10;4.58;;;;;;;18.81;79.86;99207.89;1733232;81;21428;-77
2022/06/17 15:11:14;;;;;;;4.67;2.67;;;;;;;18.77;81.04;99202.05;1734111;81;21159;-77
2022/06/17 15:16:31;;;;;;;4.50;2.72;;;;;;;18.71;82.31;99209.11;1728698;82;21037;-76
2022/06/17 15:18:58;;;;;;;10.50;3.12;;;;;;;18.68;82.93;99209.35;1734750;80;21066;-76
2022/06/17 15:21:29;;;;;;;4.50;2.72;;;;;;;18.65;83.67;99214.02;1724364;82;21005;-76
2022/06/17 15:24:16;;;;;;;4.17;2.10;;;;;;;18.60;84.01;99217.01;1717994;81;21038;-77
2022/06/17 15:27:00;;;;;;;3.08;2.47;;;;;;;18.57;84.49;99215.92;1735055;82;21033;-78
2022/06/17 15:29:27;;;;;;;2.85;2.37;;;;;;;18.53;85.08;99217.12;1718707;81;21049;-77
2022/06/17 15:31:54;;;;;;;4.12;2.42;;;;;;;18.48;84.52;99225.84;1733197;82;21279;-74
2022/06/17 15:34:34;;;;;;;3.37;2.10;;;;;;;18.48;85.41;99225.84;1707474;81;21101;-74
2022/06/17 15:37:01;;;;;;;5.35;2.77;;;;;;;18.45;86.21;99226.08;1731652;81;21050;-74
2022/06/17 15:39:43;;;;;;;3.72;2.20;;;;;;;18.43;85.86;99229.30;1711790;82;21026;-74
2022/06/17 15:42:25;;;;;;;6.20;2.55;;;;;;;18.40;85.66;99236.13;1737426;81;21069;-75
2022/06/17 15:45:02;;;;;;;4.03;2.62;;;;;;;18.37;85.15;99232.44;1736861;82;21163;-75
2022/06/17 15:47:30;;;;;;;7.28;3.50;;;;;;;18.33;85.43;99254.20;1731548;81;21547;-76
2022/06/17 15:49:59;;;;;;;3.60;2.37;;;;;;;18.19;87.19;99245.19;1739681;81;21093;-76
2022/06/17 15:52:32;;;;;;;3.15;2.30;;;;;;;18.10;87.61;99251.17;1735970;81;21011;-74
2022/06/17 15:55:06;;;;;;;5.35;2.55;;;;;;;18.07;88.17;99250.92;1727073;82;21438;-75
2022/06/17 15:57:53;;;;;;;5.33;2.33;;;;;;;18.07;88.77;99259.30;1709136;82;21259;-75
2022/06/17 16:00:33;;;;;;;4.85;2.45;;;;;;;18.05;88.69;99271.25;1730462;81;21033;-74
2022/06/17 16:03:07;;;;;;;4.42;3.27;;;;;;;17.93;88.68;99266.08;1736718;81;20982;-73
2022/06/17 16:05:38;;;;;;;4.83;3.22;;;;;;;17.84;89.26;99268.42;1734119;82;21034;-73
2022/06/17 16:08:28;;;;;;;4.25;3.00;;;;;;;17.80;89.65;99261.71;1733829;81;20959;-74
2022/06/17 16:11:31;;;;;;;5.65;3.22;;;;;;;17.79;90.43;99263.98;1724715;82;21179;-74
2022/06/17 16:14:27;;;;;;;4.45;3.05;;;;;;;17.81;90.91;99262.08;1735856;81;21579;-73
2022/06/17 16:16:54;;;;;;;3.85;3.00;;;;;;;17.85;92.09;99252.17;1727197;81;21801;-73
2022/06/17 16:19:23;;;;;;;4.05;3.10;;;;;;;17.85;92.35;99256.11;1685635;82;21054;-74
2022/06/17 16:22:03;;;;;;;5.12;2.85;;;;;;;17.86;92.76;99258.62;1732302;81;22563;-73
2022/06/17 16:24:40;;;;;;;5.00;3.90;;;;;;;17.87;93.34;99256.36;1733329;81;21908;-74
2022/06/17 16:27:21;;;;;;;4.03;3.47;;;;;;;17.86;93.49;99244.64;1734423;82;20955;-74
2022/06/17 16:29:57;;;;;;;4.20;3.10;;;;;;;17.86;93.60;99252.53;1742860;81;20970;-74
2022/06/17 16:32:27;;;;;;;4.85;2.85;;;;;;;17.84;93.96;99259.70;1730777;82;21075;-74
2022/06/17 16:34:54;;;;;;;4.67;3.20;;;;;;;17.80;93.84;99266.13;1728587;81;21561;-74
2022/06/17 16:37:30;;;;;;;3.85;3.52;;;;;;;17.80;94.29;99270.08;1728324;82;21753;-74
2022/06/17 16:46:18;;;;;;;5.83;2.55;;;;;;;17.82;92.65;99270.80;1734569;82;20974;-74
2022/06/17 16:48:47;;;;;;;2.70;2.25;;;;;;;17.78;92.27;99279.43;1715117;81;20991;-73
2022/06/17 16:51:14;;;;;;;2.90;2.55;;;;;;;17.75;89.77;99289.33;1735204;82;21250;-73
2022/06/17 16:53:41;;;;;;;3.02;2.50;;;;;;;17.71;87.81;99300.55;1733252;82;21042;-73
2022/06/17 16:56:21;;;;;;;3.30;2.37;;;;;;;17.67;85.67;99306.98;1718951;82;21021;-73
2022/06/17 16:58:48;;;;;;;3.37;2.90;;;;;;;17.60;83.59;99304.39;1731829;81;20966;-73
2022/06/17 17:01:16;;;;;;;2.92;2.47;;;;;;;17.53;83.50;99307.96;1721521;81;20985;-72
2022/06/17 17:03:43;;;;;;;5.47;2.42;;;;;;;17.49;83.55;99313.55;1655477;84;21126;-72
2022/06/17 17:06:11;;;;;;;2.45;2.17;;;;;;;17.45;82.59;99322.60;1676608;83;21098;-73
2022/06/17 17:08:39;;;;;;;3.98;2.45;;;;;;;17.38;82.24;99326.64;1691111;83;21084;-74
2022/06/17 17:11:05;;;;;;;3.98;2.67;;;;;;;17.30;82.42;99323.23;1690033;84;21589;-73
2022/06/17 17:13:32;;;;;;;5.00;2.95;;;;;;;17.25;82.09;99328.44;1691443;84;21086;-73
2022/06/17 17:15:59;;;;;;;2.67;2.00;;;;;;;17.18;82.67;99334.62;1689628;84;21067;-73
2022/06/17 17:18:25;;;;;;;3.12;2.10;;;;;;;17.11;82.81;99335.52;1690072;84;21574;-73
2022/06/17 17:20:57;;;;;;;4.45;2.30;;;;;;;17.06;83.69;99338.09;1687080;84;21559;-73
2022/06/17 17:23:26;;;;;;;3.10;2.60;;;;;;;16.97;83.52;99340.08;1708181;83;21068;-73
2022/06/17 17:25:54;;;;;;;2.62;2.42;;;;;;;16.88;84.08;99340.23;1696778;83;21088;-73
2022/06/17 17:28:22;;;;;;;3.70;2.50;;;;;;;16.84;84.38;99345.31;1700187;83;21186;-73
2022/06/17 17:30:50;;;;;;;2.08;1.82;;;;;;;16.78;85.17;99343.14;1700896;83;21011;-73
2022/06/17 17:33:17;;;;;;;3.22;2.30;;;;;;;16.73;84.62;99348.70;1720557;82;21008;-74
2022/06/17 17:35:45;;;;;;;6.83;2.87;;;;;;;16.70;84.81;99362.03;1702411;84;21024;-73
2022/06/17 17:38:13;;;;;;;2.30;2.10;;;;;;;16.66;84.74;99365.80;1693528;83;20977;-73
2022/06/17 17:40:41;;;;;;;2.75;2.50;;;;;;;16.62;85.21;99362.98;1710374;83;21814;-73
2022/06/17 17:43:07;;;;;;;5.17;2.58;;;;;;;16.59;85.86;99366.28;1700272;83;21005;-73
2022/06/17 17:45:40;;;;;;;3.22;2.55;;;;;;;16.59;85.40;99370.22;1698546;83;21092;-73
2022/06/17 17:48:12;;;;;;;3.35;2.42;;;;;;;16.57;84.96;99364.26;1701207;82;21595;-74
2022/06/17 17:50:39;;;;;;;4.35;2.42;;;;;;;16.52;83.66;99373.28;1705674;83;21437;-73
2022/06/17 17:53:07;;;;;;;3.27;3.08;;;;;;;16.46;83.21;99382.03;1694079;82;21150;-73
2022/06/17 17:55:33;;;;;;;4.42;2.70;;;;;;;16.38;84.54;99379.94;1683823;83;21142;-73
2022/06/17 17:58:02;;;;;;;3.20;2.37;;;;;;;16.33;85.88;99383.33;1698388;84;21110;-74
2022/06/17 18:00:38;;;;;;;2.92;2.58;;;;;;;16.27;86.89;99388.98;1691258;82;21043;-74
2022/06/17 18:03:05;;;;;;;3.60;2.50;;;;;;;16.21;86.05;99398.55;1705892;83;21047;-73
2022/06/17 18:05:33;;;;;;;3.02;2.80;;;;;;;16.12;85.85;99403.11;1697447;83;21904;-74
2022/06/17 18:08:00;;;;;;;2.83;2.25;;;;;;;16.03;86.03;99395.82;1702737;83;20993;-74
2022/06/17 18:10:27;;;;;;;3.42;2.33;;;;;;;15.95;84.39;99415.17;1700202;83;21072;-74
2022/06/17 18:12:54;;;;;;;2.92;2.72;;;;;;;15.83;84.72;99415.47;1673705;84;21024;-74
2022/06/17 18:15:23;;;;;;;3.33;2.37;;;;;;;15.74;85.29;99409.52;1675680;84;21080;-74
2022/06/17 18:17:50;;;;;;;2.52;2.20;;;;;;;15.64;85.99;99409.23;1692182;83;21822;-74
2022/06/17 18:20:20;;;;;;;2.27;1.87;;;;;;;15.57;86.18;99409.27;1702701;82;21044;-72
2022/06/17 18:22:48;;;;;;;2.12;2.02;;;;;;;15.49;86.74;99434.61;1686532;83;21016;-72
2022/06/17 18:25:15;;;;;;;3.15;2.20;;;;;;;15.41;87.03;99421.13;1691491;83;21071;-72
2022/06/17 18:27:42;;;;;;;2.27;2.08;;;;;;;15.34;87.05;99421.61;1703106;83;20999;-73
2022/06/17 18:30:11;;;;;;;2.42;1.87;;;;;;;15.28;87.15;99427.22;1704054;83;21160;-73
2022/06/17 18:32:44;;;;;;;2.27;2.08;;;;;;;15.23;87.42;99438.45;1697011;83;20961;-73
2022/06/17 18:35:22;;;;;;;2.58;2.37;;;;;;;15.18;88.03;99432.66;1706732;83;20964;-73
2022/06/17 18:37:48;;;;;;;2.90;1.92;;;;;;;15.08;88.86;99437.61;1695742;83;21123;-73
2022/06/17 18:40:21;;;;;;;2.50;2.30;;;;;;;15.08;88.86;99437.61;1699726;83;21528;-73
2022/06/17 18:42:48;;;;;;;1.80;1.70;;;;;;;15.00;89.93;99431.97;1726514;82;21970;-75
2022/06/17 18:45:18;;;;;;;2.50;2.02;;;;;;;14.97;89.84;99444.81;1729625;81;21064;-73
2022/06/17 18:47:45;;;;;;;2.22;2.05;;;;;;;14.94;90.14;99446.77;1730036;81;21611;-73
2022/06/17 18:50:31;;;;;;;2.30;2.05;;;;;;;14.92;90.33;99461.73;1728241;81;21077;-75
2022/06/17 18:52:57;;;;;;;2.55;1.95;;;;;;;14.92;90.33;99461.73;1735123;81;21476;-72
2022/06/17 18:55:28;;;;;;;2.22;1.67;;;;;;;14.90;90.57;99453.11;1729312;81;21146;-75
2022/06/17 18:57:57;;;;;;;2.10;1.90;;;;;;;14.86;90.92;99454.22;1740939;81;21049;-74
2022/06/17 19:00:24;;;;;;;2.33;2.12;;;;;;;14.83;91.28;99456.55;1733188;82;21101;-75
2022/06/17 19:02:53;;;;;;;2.17;1.95;;;;;;;14.80;91.37;99461.97;1729695;81;21501;-74
2022/06/17 19:05:29;;;;;;;2.33;1.72;;;;;;;14.78;91.69;99462.55;1733947;82;21441;-74
2022/06/17 19:19:06;;;;;;;2.70;1.85;;;;;;;14.71;93.23;99460.75;1739543;81;21053;-73
2022/06/17 19:21:34;;;;;;;2.40;2.20;;;;;;;14.68;93.62;99456.99;1706098;82;21766;-72
2022/06/17 19:24:01;;;;;;;2.45;2.25;;;;;;;14.68;94.32;99464.84;1729079;82;21434;-72
2022/06/17 19:26:29;;;;;;;2.27;2.08;;;;;;;14.67;94.63;99464.47;1732880;81;21531;-75
2022/06/17 19:28:56;;;;;;;2.00;1.80;;;;;;;14.65;94.93;99461.09;1725692;82;21041;-74
2022/06/17 19:31:30;;;;;;;1.95;1.67;;;;;;;14.65;95.40;99461.56;1721771;81;21521;-74
2022/06/17 19:33:57;;;;;;;3.05;2.22;;;;;;;14.64;95.47;99458.09;1735718;82;21799;-73
2022/06/17 19:36:24;;;;;;;2.37;2.17;;;;;;;14.62;95.75;99461.27;1730095;81;20992;-73
2022/06/17 19:38:55;;;;;;;3.33;2.35;;;;;;;14.60;96.17;99465.75;1740671;82;20955;-72
2022/06/17 19:44:11;;;;;;;2.62;1.87;;;;;;;14.56;96.74;99463.42;1747995;81;20988;-72
2022/06/17 19:46:43;;;;;;;2.80;1.98;;;;;;;14.56;97.20;99467.34;1725158;82;21764;-73
2022/06/17 19:49:25;;;;;;;7.20;3.05;;;;;;;14.54;97.64;99464.81;1749356;81;21076;-72
2022/06/17 19:51:52;;;;;;;3.12;2.15;;;;;;;14.56;98.46;99468.19;1748027;81;20967;-72
2022/06/17 19:54:19;;;;;;;2.77;1.77;;;;;;;14.59;98.59;99469.79;1748239;81;20962;-72
2022/06/17 19:56:46;;;;;;;2.42;2.22;;;;;;;14.61;98.78;99475.28;1747836;82;21541;-75
2022/06/17 19:59:15;;;;;;;2.55;2.35;;;;;;;14.62;98.87;99471.73;1739990;82;21226;-72
2022/06/17 20:01:54;;;;;;;2.55;2.35;;;;;;;14.63;99.07;99472.11;1734847;81;21431;-72
2022/06/17 20:04:27;;;;;;;2.05;1.85;;;;;;;14.65;99.29;99472.88;1736270;82;20887;-73
2022/06/17 20:06:54;;;;;;;2.30;2.10;;;;;;;14.67;99.04;99467.55;1736934;81;21525;-72
2022/06/17 20:09:21;;;;;;;2.10;2.00;;;;;;;14.67;99.37;99468.86;1738452;81;20952;-73
2022/06/17 20:11:48;;;;;;;2.62;2.40;;;;;;;14.69;99.45;99467.00;1685241;84;21150;-73
2022/06/17 20:14:18;;;;;;;3.20;2.62;;;;;;;14.68;99.94;99466.16;1698999;83;21019;-73
2022/06/17 20:16:49;;;;;;;3.20;2.55;;;;;;;14.71;100.00;99464.67;1686171;84;21082;-74
2022/06/17 20:19:16;;;;;;;3.62;2.00;;;;;;;14.72;100.00;99466.83;1704045;82;20995;-74
2022/06/17 20:21:44;;;;;;;2.22;2.12;;;;;;;14.71;100.00;99464.67;1704889;83;21073;-74
2022/06/17 20:24:10;;;;;;;3.05;2.75;;;;;;;14.68;100.00;99456.99;1693583;83;21573;-74
2022/06/17 20:26:39;;;;;;;3.52;3.22;;;;;;;14.64;100.00;99459.41;1695811;83;20951;-74
2022/06/17 20:29:13;;;;;;;3.17;2.87;;;;;;;14.64;100.00;99455.95;1679677;84;21487;-72
2022/06/17 20:31:39;;;;;;;2.50;2.30;;;;;;;14.63;100.00;99453.80;1690710;84;20980;-76
2022/06/17 20:34:06;;;;;;;3.45;3.15;;;;;;;14.61;100.00;99450.42;1686114;84;21004;-76
2022/06/17 20:36:34;;;;;;;3.55;3.25;;;;;;;14.61;100.00;99453.03;1729022;81;21588;-77
2022/06/17 20:39:01;;;;;;;2.92;2.72;;;;;;;14.61;100.00;99458.73;1734593;82;20963;-76
2022/06/17 20:41:28;;;;;;;3.55;2.70;;;;;;;14.58;100.00;99455.02;1729197;81;21002;-77
2022/06/17 20:43:54;;;;;;;2.52;2.20;;;;;;;14.55;100.00;99458.65;1737646;81;20995;-74
2022/06/17 20:51:57;;;;;;;3.80;2.37;;;;;;;14.43;100.00;99456.72;1735990;81;21646;-74
2022/06/17 20:54:21;;;;;;;2.33;1.98;;;;;;;14.42;100.00;99456.34;1671252;84;21165;-73
2022/06/17 20:59:34;;;;;;;3.15;2.85;;;;;;;14.43;100.00;99463.27;1739594;81;21045;-73
2022/06/17 21:02:00;;;;;;;3.62;3.33;;;;;;;14.47;100.00;99463.47;1731745;82;21135;-73
2022/06/17 21:04:47;;;;;;;4.70;2.67;;;;;;;14.47;100.00;99470.02;1684864;84;21126;-75
2022/06/17 21:07:16;;;;;;;3.33;2.17;;;;;;;14.48;100.00;99463.84;1700495;83;21038;-76
2022/06/17 21:09:45;;;;;;;4.28;3.20;;;;;;;14.50;100.00;99458.53;1686450;84;21471;-76
2022/06/17 21:12:20;;;;;;;3.58;3.17;;;;;;;14.51;100.00;99462.83;1738072;81;20955;-72
2022/06/17 21:14:47;;;;;;;3.45;3.05;;;;;;;14.51;100.00;99449.75;1738578;81;21139;-73
2022/06/17 21:17:14;;;;;;;2.80;2.60;;;;;;;14.47;100.00;99448.61;1727601;81;21433;-73
2022/06/17 21:19:41;;;;;;;3.27;2.52;;;;;;;14.46;100.00;99456.55;1728079;82;21048;-75
2022/06/17 21:22:15;;;;;;;2.77;2.50;;;;;;;14.46;100.00;99453.93;1724392;81;21127;-75
2022/06/17 21:24:42;;;;;;;;;;;;;;;14.46;100.00;99449.54;1728597;81;21006;-75
2022/06/17 21:27:13;;;;;;;3.02;2.83;;;;;;;14.45;100.00;99451.78;1714148;81;21050;-75
2022/06/17 21:29:42;;;;;;;2.50;2.30;;;;;;;14.40;100.00;99445.08;1731713;82;20939;-75
2022/06/17 21:32:09;;;;;;;2.92;2.58;;;;;;;14.38;100.00;99437.35;1727591;81;21011;-75
2022/06/17 21:34:36;;;;;;;4.10;2.47;;;;;;;14.37;100.00;99439.59;1727985;81;21468;-76
2022/06/17 21:37:03;;;;;;;3.85;3.10;;;;;;;14.39;100.00;99442.93;1725802;81;21045;-77
2022/06/17 21:39:32;;;;;;;3.00;2.80;;;;;;;14.41;100.00;99439.80;1732288;81;21215;-76
2022/06/17 21:42:05;;;;;;;2.95;2.40;;;;;;;14.43;100.00;99437.94;1735366;81;21399;-76
2022/06/17 21:44:31;;;;;;;2.60;2.40;;;;;;;14.46;100.00;99436.92;1745899;81;21104;-75
2022/06/17 21:46:58;;;;;;;3.12;2.85;;;;;;;14.49;100.00;99436.75;1721264;81;21187;-76
2022/06/17 21:49:25;;;;;;;3.85;2.80;;;;;;;14.50;100.00;99434.51;1720937;81;21088;-76
2022/06/17 21:51:59;;;;;;;3.00;2.70;;;;;;;14.48;100.00;99435.91;1736515;81;21123;-73
2022/06/17 21:54:36;;;;;;;2.35;2.15;;;;;;;14.46;100.00;99436.45;1744750;81;21016;-73
2022/06/17 21:57:03;;;;;;;2.95;2.62;;;;;;;14.47;100.00;99437.30;1735425;81;20947;-73
2022/06/17 21:59:40;;;;;;;6.37;2.60;;;;;;;14.50;100.00;99437.13;1725318;82;21060;-72
2022/06/17 22:02:12;;;;;;;4.33;3.60;;;;;;;14.52;100.00;99437.88;1725735;82;21009;-71
2022/06/17 22:04:39;;;;;;;2.85;2.62;;;;;;;14.51;100.00;99436.20;1736445;81;21132;-72
2022/06/17 22:07:17;;;;;;;3.83;2.22;;;;;;;14.52;100.00;99439.19;1737007;82;20995;-73
2022/06/17 22:09:45;;;;;;;2.70;2.47;;;;;;;14.53;100.00;99440.88;1734881;82;21003;-73
2022/06/17 22:12:16;;;;;;;3.40;3.12;;;;;;;14.53;100.00;99438.73;1728387;81;21049;-74
2022/06/17 22:14:48;;;;;;;2.35;2.25;;;;;;;14.51;100.00;99443.20;1734040;82;20955;-73
2022/06/17 22:17:17;;;;;;;2.75;2.55;;;;;;;14.48;100.00;99441.14;1736040;82;21118;-74
2022/06/17 22:19:44;;;;;;;2.27;2.10;;;;;;;14.48;100.00;99448.15;1743171;81;21036;-73
2022/06/17 22:22:27;;;;;;;2.77;2.58;;;;;;;14.45;100.00;99449.63;1727063;81;20997;-74
2022/06/17 22:24:54;;;;;;;3.25;2.95;;;;;;;14.41;100.00;99443.72;1740484;81;21035;-74
2022/06/17 22:27:27;;;;;;;3.12;2.67;;;;;;;14.41;100.00;99454.19;1735537;82;21521;-72
2022/06/17 22:29:55;;;;;;;2.40;2.20;;;;;;;14.44;100.00;99442.24;1732346;81;21398;-73
2022/06/17 22:32:26;;;;;;;3.08;2.30;;;;;;;14.48;100.00;99446.38;1737956;81;21057;-73